createdAt,value
2017-08-23T00:00:18.080Z,100618.23
2017-08-23T00:02:45.555Z,100617.39
2017-08-23T00:05:13.022Z,100615.88
2017-08-23T00:07:40.457Z,100621.94
2017-08-23T00:10:07.929Z,100613.86
2017-08-23T00:12:35.361Z,100610.02
2017-08-23T00:15:02.804Z,100610.78
2017-08-23T00:17:30.258Z,100617.86
2017-08-23T00:19:57.695Z,100614.05
2017-08-23T00:22:25.191Z,100616.19
2017-08-23T00:24:52.621Z,100612.71
2017-08-23T00:27:20.110Z,100612.64
2017-08-23T00:29:47.546Z,100619.50
2017-08-23T00:32:15.026Z,100617.83
2017-08-23T00:34:42.577Z,100614.62
2017-08-23T00:37:10.038Z,100616.59
2017-08-23T00:39:37.619Z,100616.01
2017-08-23T00:42:05.159Z,100614.34
2017-08-23T00:44:32.620Z,100610.30
2017-08-23T00:47:00.165Z,100610.77
2017-08-23T00:49:27.822Z,100613.20
2017-08-23T00:51:55.292Z,100609.53
2017-08-23T00:54:22.741Z,100607.17
2017-08-23T00:56:50.178Z,100599.24
2017-08-23T00:59:17.654Z,100609.48
2017-08-23T01:01:45.674Z,100609.38
2017-08-23T01:04:13.141Z,100601.62
2017-08-23T01:06:40.580Z,100607.49
2017-08-23T01:09:08.102Z,100605.77
2017-08-23T01:11:35.558Z,100600.71
2017-08-23T01:14:03.182Z,100597.69
2017-08-23T01:16:30.637Z,100596.53
2017-08-23T01:18:58.078Z,100593.55
2017-08-23T01:21:25.550Z,100597.23
2017-08-23T01:23:52.981Z,100593.09
2017-08-23T01:26:20.560Z,100593.70
2017-08-23T01:28:48.027Z,100592.78
2017-08-23T01:31:15.529Z,100590.73
2017-08-23T01:33:42.998Z,100580.81
2017-08-23T01:36:10.540Z,100583.69
2017-08-23T01:38:38.101Z,100586.12
2017-08-23T01:41:05.561Z,100581.04
2017-08-23T01:43:33.048Z,100584.27
2017-08-23T01:46:00.503Z,100579.67
2017-08-23T01:48:28.020Z,100580.50
2017-08-23T01:50:55.747Z,100584.88
2017-08-23T01:53:23.244Z,100580.78
2017-08-23T01:55:50.697Z,100577.56
2017-08-23T01:58:18.142Z,100582.14
2017-08-23T02:00:45.612Z,100579.57
2017-08-23T02:03:13.267Z,100575.02
2017-08-23T02:05:40.732Z,100578.47
2017-08-23T02:08:08.261Z,100583.28
2017-08-23T02:10:35.754Z,100585.03
2017-08-23T02:13:03.208Z,100586.80
2017-08-23T02:15:30.877Z,100581.30
2017-08-23T02:17:58.345Z,100575.92
2017-08-23T02:20:25.828Z,100572.98
2017-08-23T02:22:53.288Z,100579.44
2017-08-23T02:25:20.801Z,100582.48
2017-08-23T02:27:48.258Z,100573.75
2017-08-23T02:30:15.792Z,100573.98
2017-08-23T02:32:43.248Z,100571.18
2017-08-23T02:35:10.700Z,100580.48
2017-08-23T02:37:38.181Z,100580.45
2017-08-23T02:40:06.296Z,100579.37
2017-08-23T02:42:33.912Z,100571.58
2017-08-23T02:45:02.219Z,100581.92
2017-08-23T02:47:29.705Z,100573.85
2017-08-23T02:49:57.205Z,100571.51
2017-08-23T02:52:24.865Z,100571.11
2017-08-23T02:54:52.349Z,100580.95
2017-08-23T02:57:19.876Z,100577.36
2017-08-23T02:59:47.474Z,100582.02
2017-08-23T03:02:14.943Z,100580.80
2017-08-23T03:04:42.665Z,100575.59
2017-08-23T03:07:10.119Z,100577.97
2017-08-23T03:09:37.596Z,100576.77
2017-08-23T03:12:05.087Z,100576.42
2017-08-23T03:14:32.584Z,100583.22
2017-08-23T03:17:00.056Z,100582.92
2017-08-23T03:19:27.537Z,100583.33
2017-08-23T03:21:55.056Z,100577.50
2017-08-23T03:24:22.507Z,100579.81
2017-08-23T03:26:49.975Z,100579.24
2017-08-23T03:29:17.442Z,100575.13
2017-08-23T03:31:44.953Z,100569.54
2017-08-23T03:34:12.440Z,100571.71
2017-08-23T03:36:39.913Z,100569.37
2017-08-23T03:39:07.460Z,100571.08
2017-08-23T03:41:34.947Z,100562.45
2017-08-23T03:44:02.415Z,100565.39
2017-08-23T03:46:29.928Z,100565.19
2017-08-23T03:48:57.485Z,100573.55
2017-08-23T03:51:24.959Z,100570.80
2017-08-23T03:53:52.407Z,100567.04
2017-08-23T03:56:19.885Z,100562.59
2017-08-23T03:58:47.416Z,100571.22
2017-08-23T04:01:14.917Z,100566.28
2017-08-23T04:03:42.379Z,100564.95
2017-08-23T04:06:09.897Z,100570.33
2017-08-23T04:08:37.457Z,100569.66
2017-08-23T04:11:04.957Z,100574.67
2017-08-23T04:13:32.427Z,100580.05
2017-08-23T04:15:59.916Z,100582.91
2017-08-23T04:18:27.485Z,100579.74
2017-08-23T04:20:55.037Z,100578.50
2017-08-23T04:23:22.521Z,100582.70
2017-08-23T04:25:49.984Z,100579.19
2017-08-23T04:28:17.560Z,100575.21
2017-08-23T04:30:45.072Z,100580.71
2017-08-23T04:33:12.562Z,100583.91
2017-08-23T04:35:40.093Z,100580.71
2017-08-23T04:38:07.595Z,100578.44
2017-08-23T04:40:35.095Z,100575.85
2017-08-23T04:43:02.656Z,100576.88
2017-08-23T04:45:31.065Z,100571.30
2017-08-23T04:47:58.644Z,100577.35
2017-08-23T04:50:26.104Z,100574.22
2017-08-23T04:52:53.608Z,100573.75
2017-08-23T04:55:21.072Z,100578.38
2017-08-23T04:57:48.730Z,100574.25
2017-08-23T05:00:16.201Z,100589.23
2017-08-23T05:02:43.731Z,100589.27
2017-08-23T05:05:11.200Z,100583.95
2017-08-23T05:07:38.807Z,100584.09
2017-08-23T05:10:06.433Z,100584.44
2017-08-23T05:12:33.943Z,100589.74
2017-08-23T05:15:02.249Z,100588.88
2017-08-23T05:17:29.828Z,100593.77
2017-08-23T05:19:57.299Z,100588.98
2017-08-23T05:22:24.758Z,100587.23
2017-08-23T05:24:52.242Z,100586.93
2017-08-23T05:27:19.738Z,100588.44
2017-08-23T05:29:47.212Z,100588.64
2017-08-23T05:32:14.765Z,100577.62
2017-08-23T05:34:42.315Z,100584.49
2017-08-23T05:37:09.767Z,100590.65
2017-08-23T05:39:37.333Z,100585.33
2017-08-23T05:42:04.888Z,100584.05
2017-08-23T05:44:32.369Z,100579.77
2017-08-23T05:46:59.904Z,100580.65
2017-08-23T05:49:27.398Z,100581.87
2017-08-23T05:51:54.894Z,100584.11
2017-08-23T05:54:22.381Z,100581.74
2017-08-23T05:56:49.849Z,100579.36
2017-08-23T05:59:17.392Z,100581.00
2017-08-23T06:01:44.895Z,100583.04
2017-08-23T06:04:12.401Z,100580.62
2017-08-23T06:06:39.861Z,100575.24
2017-08-23T06:09:07.339Z,100571.13
2017-08-23T06:11:34.792Z,100564.15
2017-08-23T06:14:02.618Z,100564.97
2017-08-23T06:16:30.110Z,100563.38
2017-08-23T06:18:57.578Z,100569.42
2017-08-23T06:21:25.048Z,100569.61
2017-08-23T06:23:52.535Z,100552.79
2017-08-23T06:26:20.028Z,100555.84
2017-08-23T06:28:47.601Z,100553.23
2017-08-23T06:31:15.134Z,100551.06
2017-08-23T06:33:42.587Z,100551.80
2017-08-23T06:36:10.065Z,100546.10
2017-08-23T06:38:37.647Z,100548.94
2017-08-23T06:41:05.123Z,100555.84
2017-08-23T06:43:32.580Z,100556.44
2017-08-23T06:46:00.078Z,100558.36
2017-08-23T06:48:27.534Z,100561.88
2017-08-23T06:50:55.106Z,100551.70
2017-08-23T06:53:22.603Z,100549.71
2017-08-23T06:55:50.092Z,100551.04
2017-08-23T06:58:17.553Z,100557.62
2017-08-23T07:00:45.142Z,100559.31
2017-08-23T07:03:12.698Z,100564.84
2017-08-23T07:05:40.399Z,100559.54
2017-08-23T07:08:07.959Z,100554.97
2017-08-23T07:10:35.435Z,100558.14
2017-08-23T07:13:02.888Z,100560.11
2017-08-23T07:15:30.368Z,100562.37
2017-08-23T07:17:58.039Z,100549.14
2017-08-23T07:20:25.517Z,100552.76
2017-08-23T07:22:52.977Z,100549.21
2017-08-23T07:25:20.515Z,100550.28
2017-08-23T07:27:48.074Z,100554.60
2017-08-23T07:30:15.537Z,100555.92
2017-08-23T07:32:42.997Z,100557.46
2017-08-23T07:35:10.557Z,100557.59
2017-08-23T07:37:38.033Z,100560.55
2017-08-23T07:40:05.491Z,100563.13
2017-08-23T07:42:33.030Z,100559.84
2017-08-23T07:45:00.572Z,100562.93
2017-08-23T07:47:28.052Z,100558.77
2017-08-23T07:49:55.515Z,100564.45
2017-08-23T07:52:23.023Z,100563.27
2017-08-23T07:54:50.481Z,100571.16
2017-08-23T07:57:18.060Z,100567.02
2017-08-23T07:59:45.633Z,100562.35
2017-08-23T08:02:13.189Z,100567.17
2017-08-23T08:04:40.639Z,100564.03
2017-08-23T08:07:08.159Z,100568.55
2017-08-23T08:09:35.713Z,100569.27
2017-08-23T08:12:03.260Z,100565.93
2017-08-23T08:14:30.804Z,100566.28
2017-08-23T08:16:58.259Z,100555.06
2017-08-23T08:19:25.782Z,100559.17
2017-08-23T08:21:53.238Z,100558.95
2017-08-23T08:24:20.796Z,100559.74
2017-08-23T08:26:48.320Z,100557.85
2017-08-23T08:29:15.809Z,100546.83
2017-08-23T08:31:43.426Z,100547.52
2017-08-23T08:34:10.909Z,100544.73
2017-08-23T08:36:38.368Z,100540.72
2017-08-23T08:39:05.857Z,100540.62
2017-08-23T08:41:33.313Z,100534.14
2017-08-23T08:44:00.865Z,100538.58
2017-08-23T08:46:28.441Z,100539.63
2017-08-23T08:48:55.980Z,100540.83
2017-08-23T08:51:23.545Z,100537.50
2017-08-23T08:53:51.028Z,100537.59
2017-08-23T08:56:18.561Z,100536.77
2017-08-23T08:58:46.045Z,100533.57
2017-08-23T09:01:13.491Z,100537.98
2017-08-23T09:03:40.991Z,100536.61
2017-08-23T09:06:08.457Z,100536.13
2017-08-23T09:08:35.995Z,100526.86
2017-08-23T09:11:03.457Z,100521.94
2017-08-23T09:13:30.957Z,100532.59
2017-08-23T09:15:58.415Z,100534.72
2017-08-23T09:18:25.966Z,100530.47
2017-08-23T09:20:53.423Z,100519.72
2017-08-23T09:23:20.981Z,100524.30
2017-08-23T09:25:48.449Z,100509.93
2017-08-23T09:28:15.909Z,100517.63
2017-08-23T09:30:43.418Z,100523.66
2017-08-23T09:33:10.888Z,100514.46
2017-08-23T09:35:38.397Z,100516.40
2017-08-23T09:38:05.847Z,100517.27
2017-08-23T09:40:33.342Z,100516.47
2017-08-23T09:43:00.855Z,100507.38
2017-08-23T09:45:28.335Z,100511.13
2017-08-23T09:47:55.779Z,100509.53
2017-08-23T09:50:23.294Z,100508.09
2017-08-23T09:52:50.772Z,100505.09
2017-08-23T09:55:18.243Z,100501.87
2017-08-23T09:57:45.700Z,100498.23
2017-08-23T10:00:13.177Z,100500.41
2017-08-23T10:02:40.827Z,100492.34
2017-08-23T10:05:08.363Z,100486.48
2017-08-23T10:07:36.681Z,100484.28
2017-08-23T10:10:04.182Z,100485.39
2017-08-23T10:12:31.643Z,100485.67
2017-08-23T10:14:59.403Z,100486.71
2017-08-23T10:17:26.967Z,100484.27
2017-08-23T10:19:54.525Z,100487.09
2017-08-23T10:22:22.015Z,100485.07
2017-08-23T10:24:49.472Z,100480.68
2017-08-23T10:27:17.252Z,100483.56
2017-08-23T10:29:44.709Z,100490.22
2017-08-23T10:32:13.563Z,100479.89
2017-08-23T10:34:41.112Z,100489.83
2017-08-23T10:37:08.600Z,100482.86
2017-08-23T10:39:36.103Z,100478.89
2017-08-23T10:42:03.581Z,100470.81
2017-08-23T10:44:31.046Z,100477.09
2017-08-23T10:46:58.600Z,100464.06
2017-08-23T10:49:26.043Z,100463.51
2017-08-23T10:51:53.608Z,100461.69
2017-08-23T10:54:21.074Z,100454.95
2017-08-23T10:56:48.593Z,100457.11
2017-08-23T10:59:16.094Z,100458.99
2017-08-23T11:01:43.631Z,100461.61
2017-08-23T11:04:11.205Z,100458.45
2017-08-23T11:06:38.859Z,100452.80
2017-08-23T11:09:06.347Z,100448.11
2017-08-23T11:11:33.927Z,100449.98
2017-08-23T11:14:01.430Z,100447.92
2017-08-23T11:16:28.997Z,100437.92
2017-08-23T11:18:56.801Z,100441.42
2017-08-23T11:21:24.326Z,100445.42
2017-08-23T11:23:51.882Z,100442.94
2017-08-23T11:26:19.608Z,100445.94
2017-08-23T11:28:47.083Z,100443.73
2017-08-23T11:31:14.532Z,100446.00
2017-08-23T11:33:42.208Z,100445.34
2017-08-23T11:36:09.781Z,100444.70
2017-08-23T11:38:37.335Z,100440.89
2017-08-23T11:41:04.843Z,100445.71
2017-08-23T11:43:32.441Z,100442.16
2017-08-23T11:45:59.923Z,100442.14
2017-08-23T11:48:27.450Z,100439.00
2017-08-23T11:50:54.923Z,100430.52
2017-08-23T11:53:22.386Z,100426.28
2017-08-23T11:55:50.168Z,100433.24
2017-08-23T11:58:17.615Z,100433.87
2017-08-23T12:00:45.097Z,100419.48
2017-08-23T12:03:12.610Z,100418.05
2017-08-23T12:05:40.093Z,100415.52
2017-08-23T12:08:07.638Z,100419.17
2017-08-23T12:10:35.207Z,100416.46
2017-08-23T12:13:02.673Z,100418.67
2017-08-23T12:15:30.252Z,100414.00
2017-08-23T12:17:57.729Z,100411.92
2017-08-23T12:20:25.187Z,100409.44
2017-08-23T12:22:52.673Z,100406.78
2017-08-23T12:25:20.169Z,100409.22
2017-08-23T12:27:47.648Z,100407.38
2017-08-23T12:30:15.152Z,100405.50
2017-08-23T12:32:42.636Z,100398.38
2017-08-23T12:35:10.109Z,100400.32
2017-08-23T12:37:37.614Z,100400.51
2017-08-23T12:40:05.172Z,100398.42
2017-08-23T12:42:32.669Z,100399.08
2017-08-23T12:45:00.457Z,100392.16
2017-08-23T12:47:27.938Z,100391.41
2017-08-23T12:49:55.412Z,100385.30
2017-08-23T12:52:22.916Z,100383.03
2017-08-23T12:54:50.431Z,100388.01
2017-08-23T12:57:17.918Z,100382.29
2017-08-23T12:59:46.341Z,100393.83
2017-08-23T13:02:13.820Z,100386.97
2017-08-23T13:04:41.338Z,100377.98
2017-08-23T13:07:08.832Z,100380.48
2017-08-23T13:09:36.292Z,100383.27
2017-08-23T13:12:04.041Z,100387.27
2017-08-23T13:14:31.525Z,100387.07
2017-08-23T13:16:59.023Z,100381.19
2017-08-23T13:19:26.576Z,100385.55
2017-08-23T13:21:54.028Z,100383.36
2017-08-23T13:24:21.523Z,100379.99
2017-08-23T13:26:49.018Z,100372.08
2017-08-23T13:29:16.606Z,100372.86
2017-08-23T13:31:44.127Z,100372.29
2017-08-23T13:34:11.655Z,100371.22
2017-08-23T13:36:40.007Z,100367.16
2017-08-23T13:39:07.490Z,100356.20
2017-08-23T13:41:34.964Z,100364.67
2017-08-23T13:44:02.427Z,100370.56
2017-08-23T13:46:29.977Z,100371.52
2017-08-23T13:48:57.542Z,100365.64
2017-08-23T13:51:25.102Z,100365.17
2017-08-23T13:53:52.590Z,100355.19
2017-08-23T13:56:20.048Z,100349.72
2017-08-23T13:58:47.573Z,100350.85
2017-08-23T14:01:15.160Z,100334.34
2017-08-23T14:03:42.684Z,100341.94
2017-08-23T14:06:10.217Z,100338.59
2017-08-23T14:08:37.679Z,100337.07
2017-08-23T14:11:05.168Z,100335.75
2017-08-23T14:13:33.070Z,100339.14
2017-08-23T14:16:00.586Z,100331.90
2017-08-23T14:18:28.053Z,100332.31
2017-08-23T14:20:55.537Z,100337.04
2017-08-23T14:23:22.998Z,100331.58
2017-08-23T14:25:51.279Z,100328.87
2017-08-23T14:28:18.801Z,100327.03
2017-08-23T14:30:46.354Z,100322.08
2017-08-23T14:33:13.939Z,100319.36
2017-08-23T14:35:41.445Z,100319.70
2017-08-23T14:38:09.140Z,100310.75
2017-08-23T14:40:36.620Z,100312.72
2017-08-23T14:43:04.078Z,100305.60
2017-08-23T14:45:31.608Z,100308.41
2017-08-23T14:47:59.155Z,100308.77
2017-08-23T14:50:27.280Z,100304.67
2017-08-23T14:52:54.736Z,100300.59
2017-08-23T14:55:22.237Z,100300.44
2017-08-23T14:57:49.796Z,100296.29
2017-08-23T15:00:17.355Z,100297.16
2017-08-23T15:02:44.814Z,100295.72
2017-08-23T15:05:12.390Z,100285.44
2017-08-23T15:07:39.858Z,100290.27
2017-08-23T15:10:07.336Z,100279.53
2017-08-23T15:12:34.849Z,100281.94
2017-08-23T15:15:02.331Z,100281.48
2017-08-23T15:17:29.911Z,100283.08
2017-08-23T15:19:57.429Z,100284.02
2017-08-23T15:22:24.963Z,100280.25
2017-08-23T15:24:52.438Z,100273.58
2017-08-23T15:27:19.935Z,100268.03
2017-08-23T15:29:47.460Z,100272.00
2017-08-23T15:32:15.013Z,100268.28
2017-08-23T15:34:42.559Z,100263.34
2017-08-23T15:37:10.027Z,100268.64
2017-08-23T15:39:37.610Z,100261.62
2017-08-23T15:42:05.081Z,100262.58
2017-08-23T15:44:32.523Z,100257.28
2017-08-23T15:47:00.060Z,100261.44
2017-08-23T15:49:27.623Z,100258.59
2017-08-23T15:51:55.519Z,100252.18
2017-08-23T15:54:23.034Z,100252.13
2017-08-23T15:56:50.533Z,100254.27
2017-08-23T15:59:18.070Z,100250.95
2017-08-23T16:01:45.541Z,100253.84
2017-08-23T16:04:13.043Z,100249.12
2017-08-23T16:06:40.507Z,100249.12
2017-08-23T16:09:07.975Z,100238.97
2017-08-23T16:11:35.448Z,100243.47
2017-08-23T16:14:02.900Z,100249.48
2017-08-23T16:16:31.638Z,100248.27
2017-08-23T16:18:59.126Z,100247.14
2017-08-23T16:21:26.587Z,100238.52
2017-08-23T16:23:54.119Z,100241.51
2017-08-23T16:26:21.577Z,100236.06
2017-08-23T16:28:49.098Z,100233.78
2017-08-23T16:31:16.573Z,100230.03
2017-08-23T16:33:44.081Z,100230.53
2017-08-23T16:36:11.653Z,100233.69
2017-08-23T16:38:39.200Z,100235.20
2017-08-23T16:41:06.719Z,100235.59
2017-08-23T16:43:34.193Z,100238.14
2017-08-23T16:46:01.672Z,100231.55
2017-08-23T16:48:29.140Z,100232.59
2017-08-23T16:50:56.689Z,100229.79
2017-08-23T16:53:24.295Z,100230.86
2017-08-23T16:55:51.772Z,100223.14
2017-08-23T16:58:19.259Z,100229.94
2017-08-23T17:00:46.811Z,100219.61
2017-08-23T17:03:14.371Z,100224.59
2017-08-23T17:05:41.987Z,100225.42
2017-08-23T17:08:10.157Z,100219.01
2017-08-23T17:10:37.603Z,100221.48
2017-08-23T17:13:05.278Z,100219.33
2017-08-23T17:15:32.739Z,100215.44
2017-08-23T17:18:00.226Z,100215.59
2017-08-23T17:20:27.676Z,100213.77
2017-08-23T17:22:55.297Z,100215.31
2017-08-23T17:25:22.868Z,100219.78
2017-08-23T17:27:50.336Z,100222.45
2017-08-23T17:30:17.789Z,100230.50
2017-08-23T17:32:45.260Z,100229.05
2017-08-23T17:35:14.955Z,100225.92
2017-08-23T17:37:42.557Z,100224.08
2017-08-23T17:40:10.112Z,100228.43
2017-08-23T17:42:37.676Z,100222.84
2017-08-23T17:45:05.237Z,100221.24
2017-08-23T17:47:32.706Z,100224.64
2017-08-23T17:50:00.301Z,100219.22
2017-08-23T17:52:27.766Z,100222.88
2017-08-23T17:54:55.243Z,100221.74
2017-08-23T17:57:22.823Z,100222.67
2017-08-23T17:59:50.336Z,100232.32
2017-08-23T18:02:17.841Z,100233.55
2017-08-23T18:04:45.322Z,100228.38
2017-08-23T18:07:12.778Z,100231.83
2017-08-23T18:09:40.305Z,100234.06
2017-08-23T18:12:08.002Z,100235.89
2017-08-23T18:14:35.533Z,100244.05
2017-08-23T18:17:03.097Z,100247.14
2017-08-23T18:19:30.621Z,100254.77
2017-08-23T18:21:58.101Z,100252.30
2017-08-23T18:24:25.662Z,100258.65
2017-08-23T18:26:53.203Z,100253.99
2017-08-23T18:29:20.683Z,100244.86
2017-08-23T18:31:48.232Z,100246.00
2017-08-23T18:34:15.873Z,100246.47
2017-08-23T18:36:44.062Z,100253.50
2017-08-23T18:39:11.570Z,100252.56
2017-08-23T18:41:39.195Z,100244.62
2017-08-23T18:44:06.753Z,100256.19
2017-08-23T18:46:34.237Z,100260.50
2017-08-23T18:49:02.147Z,100263.11
2017-08-23T18:51:29.622Z,100263.63
2017-08-23T18:53:57.075Z,100270.56
2017-08-23T18:56:27.550Z,100262.88
2017-08-23T18:58:55.015Z,100268.06
2017-08-23T19:01:22.624Z,100266.71
2017-08-23T19:03:53.230Z,100271.45
2017-08-23T19:06:20.706Z,100262.81
2017-08-23T19:08:48.173Z,100263.50
2017-08-23T19:11:16.122Z,100268.94
2017-08-23T19:13:43.597Z,100267.91
2017-08-23T19:16:11.085Z,100277.73
2017-08-23T19:18:38.917Z,100276.00
2017-08-23T19:21:06.445Z,100279.36
2017-08-23T19:23:33.891Z,100278.85
2017-08-23T19:26:01.360Z,100280.94
2017-08-23T19:28:28.819Z,100284.69
2017-08-23T19:30:56.355Z,100281.45
2017-08-23T19:33:23.866Z,100272.42
2017-08-23T19:35:51.411Z,100271.56
2017-08-23T19:38:18.860Z,100272.88
2017-08-23T19:40:46.403Z,100269.73
2017-08-23T19:43:13.903Z,100263.23
2017-08-23T19:45:41.375Z,100266.35
2017-08-23T19:48:08.937Z,100276.74
2017-08-23T19:50:36.726Z,100279.33
2017-08-23T19:53:04.232Z,100270.30
2017-08-23T19:55:31.838Z,100272.33
2017-08-23T19:57:59.297Z,100274.97
2017-08-23T20:00:26.783Z,100275.27
2017-08-23T20:02:54.260Z,100279.73
2017-08-23T20:05:21.768Z,100283.42
2017-08-23T20:07:49.224Z,100277.56
2017-08-23T20:10:16.676Z,100273.69
2017-08-23T20:12:44.152Z,100282.25
2017-08-23T20:15:11.609Z,100277.23
2017-08-23T20:17:39.098Z,100277.77
2017-08-23T20:20:06.548Z,100276.20
2017-08-23T20:22:34.011Z,100274.44
2017-08-23T20:25:01.476Z,100279.47
2017-08-23T20:27:29.038Z,100278.74
2017-08-23T20:29:56.499Z,100285.09
2017-08-23T20:32:24.020Z,100280.33
2017-08-23T20:34:51.472Z,100277.74
2017-08-23T20:37:18.967Z,100271.25
2017-08-23T20:39:46.446Z,100268.19
2017-08-23T20:42:13.968Z,100268.99
2017-08-23T20:44:41.443Z,100280.34
2017-08-23T20:47:08.916Z,100277.37
2017-08-23T20:49:36.398Z,100272.89
2017-08-23T20:52:03.880Z,100272.29
2017-08-23T20:54:31.331Z,100271.84
2017-08-23T20:56:58.814Z,100274.02
2017-08-23T20:59:26.380Z,100273.75
2017-08-23T21:01:53.848Z,100275.86
2017-08-23T21:04:21.435Z,100283.45
2017-08-23T21:06:48.907Z,100281.59
2017-08-23T21:09:16.407Z,100286.42
2017-08-23T21:11:43.961Z,100290.45
2017-08-23T21:14:11.424Z,100282.19
2017-08-23T21:16:38.967Z,100278.48
2017-08-23T21:19:06.419Z,100281.21
2017-08-23T21:21:33.887Z,100284.09
2017-08-23T21:24:01.340Z,100284.48
2017-08-23T21:26:28.895Z,100289.27
2017-08-23T21:28:56.375Z,100287.59
2017-08-23T21:31:23.916Z,100284.91
2017-08-23T21:33:51.426Z,100291.62
2017-08-23T21:36:18.896Z,100294.84
2017-08-23T21:38:46.353Z,100293.07
2017-08-23T21:41:13.852Z,100292.69
2017-08-23T21:43:41.417Z,100293.39
2017-08-23T21:46:08.951Z,100298.56
2017-08-23T21:48:36.420Z,100296.73
2017-08-23T21:51:03.889Z,100296.33
2017-08-23T21:53:31.431Z,100290.73
2017-08-23T21:55:58.941Z,100295.74
2017-08-23T21:58:26.425Z,100295.41
2017-08-23T22:00:53.888Z,100294.28
2017-08-23T22:03:21.387Z,100295.66
2017-08-23T22:05:48.843Z,100299.05
2017-08-23T22:08:16.389Z,100292.80
2017-08-23T22:10:44.364Z,100296.55
2017-08-23T22:13:11.909Z,100297.24
2017-08-23T22:15:39.369Z,100294.78
2017-08-23T22:18:06.916Z,100296.53
2017-08-23T22:20:34.484Z,100296.70
2017-08-23T22:23:02.234Z,100298.02
2017-08-23T22:25:29.701Z,100293.59
2017-08-23T22:27:57.261Z,100289.66
2017-08-23T22:30:24.720Z,100288.92
2017-08-23T22:32:52.219Z,100284.33
2017-08-23T22:35:19.670Z,100280.41
2017-08-23T22:37:47.149Z,100290.06
2017-08-23T22:40:14.649Z,100290.32
2017-08-23T22:42:42.197Z,100287.06
2017-08-23T22:45:09.760Z,100288.05
2017-08-23T22:47:37.263Z,100288.16
2017-08-23T22:50:04.727Z,100286.91
2017-08-23T22:52:32.212Z,100278.28
2017-08-23T22:54:59.664Z,100281.60
2017-08-23T22:57:27.242Z,100282.47
2017-08-23T22:59:54.761Z,100273.48
2017-08-23T23:02:22.260Z,100277.18
2017-08-23T23:04:49.766Z,100276.12
2017-08-23T23:07:17.325Z,100273.95
2017-08-23T23:09:44.804Z,100277.70
2017-08-23T23:12:12.288Z,100277.95
2017-08-23T23:14:39.768Z,100263.80
2017-08-23T23:17:07.295Z,100265.45
2017-08-23T23:19:34.869Z,100269.19
2017-08-23T23:22:02.421Z,100272.38
2017-08-23T23:24:30.026Z,100272.89
2017-08-23T23:26:57.535Z,100265.93
2017-08-23T23:29:25.018Z,100270.98
2017-08-23T23:31:52.500Z,100267.81
2017-08-23T23:34:20.040Z,100265.11
2017-08-23T23:36:48.136Z,100270.17
2017-08-23T23:39:15.607Z,100267.31
2017-08-23T23:41:43.065Z,100263.38
2017-08-23T23:44:10.555Z,100268.81
2017-08-23T23:46:38.132Z,100263.91
2017-08-23T23:49:05.872Z,100264.08
2017-08-23T23:51:33.322Z,100256.80
2017-08-23T23:54:00.801Z,100252.34
2017-08-23T23:56:28.253Z,100260.80
2017-08-23T23:58:55.746Z,100258.53
